createdAt,value
2023-04-26T00:00:49.946Z,6.31
2023-04-26T00:01:49.909Z,6.27
2023-04-26T00:02:50.065Z,6.33
2023-04-26T00:03:50.152Z,6.19
2023-04-26T00:04:50.139Z,6.26
2023-04-26T00:05:49.984Z,6.19
2023-04-26T00:06:49.865Z,6.30
2023-04-26T00:07:49.925Z,6.24
2023-04-26T00:08:50.068Z,6.17
2023-04-26T00:09:49.850Z,6.22
2023-04-26T00:10:49.800Z,6.24
2023-04-26T00:11:49.885Z,6.19
2023-04-26T00:12:49.828Z,6.20
2023-04-26T00:13:49.807Z,6.24
2023-04-26T00:14:49.837Z,6.14
2023-04-26T00:15:49.919Z,6.16
2023-04-26T00:16:49.768Z,6.16
2023-04-26T00:17:49.773Z,6.24
2023-04-26T00:18:49.746Z,6.20
2023-04-26T00:19:49.714Z,6.19
2023-04-26T00:20:49.670Z,6.20
2023-04-26T00:21:49.700Z,6.20
2023-04-26T00:22:49.641Z,6.11
2023-04-26T00:23:49.656Z,6.08
2023-04-26T00:24:49.619Z,6.14
2023-04-26T00:25:49.633Z,6.17
2023-04-26T00:26:49.646Z,6.04
2023-04-26T00:27:49.612Z,6.11
2023-04-26T00:28:49.656Z,6.09
2023-04-26T00:29:49.633Z,6.07
2023-04-26T00:30:49.621Z,6.07
2023-04-26T00:31:49.633Z,6.08
2023-04-26T00:32:49.588Z,6.05
2023-04-26T00:33:49.540Z,6.11
2023-04-26T00:34:49.529Z,6.11
2023-04-26T00:35:49.482Z,6.09
2023-04-26T00:36:49.501Z,6.05
2023-04-26T00:37:49.507Z,6.05
2023-04-26T00:38:49.636Z,6.24
2023-04-26T00:39:49.453Z,6.22
2023-04-26T00:40:49.433Z,6.26
2023-04-26T00:41:49.450Z,6.07
2023-04-26T00:42:49.432Z,6.07
2023-04-26T00:43:49.442Z,6.08
2023-04-26T00:44:49.398Z,6.01
2023-04-26T00:45:49.412Z,6.01
2023-04-26T00:46:49.445Z,6.07
2023-04-26T00:47:49.390Z,6.12
2023-04-26T00:48:49.379Z,6.17
2023-04-26T00:49:49.332Z,6.22
2023-04-26T00:50:49.554Z,6.14
2023-04-26T00:51:49.331Z,6.12
2023-04-26T00:52:49.283Z,6.19
2023-04-26T00:53:49.298Z,6.08
2023-04-26T00:54:49.303Z,6.07
2023-04-26T00:55:49.361Z,6.07
2023-04-26T00:56:49.256Z,6.08
2023-04-26T00:57:49.261Z,6.12
2023-04-26T00:58:49.227Z,6.04
2023-04-26T00:59:49.173Z,6.11
2023-04-26T01:00:49.182Z,6.16
2023-04-26T01:01:49.154Z,6.22
2023-04-26T01:02:49.446Z,6.05
2023-04-26T01:03:49.278Z,6.12
2023-04-26T01:04:49.111Z,5.99
2023-04-26T01:05:49.111Z,6.05
2023-04-26T01:06:49.107Z,6.11
2023-04-26T01:07:49.158Z,6.09
2023-04-26T01:08:49.121Z,5.98
2023-04-26T01:09:49.077Z,6.08
2023-04-26T01:10:49.097Z,5.94
2023-04-26T01:11:49.060Z,5.99
2023-04-26T01:12:49.016Z,5.94
2023-04-26T01:13:49.038Z,5.82
2023-04-26T01:14:49.017Z,5.75
2023-04-26T01:15:48.989Z,5.72
2023-04-26T01:16:49.075Z,5.66
2023-04-26T01:17:49.005Z,5.68
2023-04-26T01:18:49.114Z,5.66
2023-04-26T01:19:48.945Z,5.66
2023-04-26T01:20:48.945Z,5.62
2023-04-26T01:21:48.940Z,5.56
2023-04-26T01:22:48.922Z,5.59
2023-04-26T01:23:48.903Z,5.54
2023-04-26T01:24:48.908Z,5.53
2023-04-26T01:25:48.898Z,5.59
2023-04-26T01:26:48.862Z,5.54
2023-04-26T01:27:48.874Z,5.54
2023-04-26T01:28:48.820Z,5.50
2023-04-26T01:29:48.841Z,5.41
2023-04-26T01:30:48.823Z,5.46
2023-04-26T01:31:49.001Z,5.51
2023-04-26T01:32:48.809Z,5.46
2023-04-26T01:33:49.380Z,5.44
2023-04-26T01:34:48.860Z,5.50
2023-04-26T01:35:48.718Z,5.35
2023-04-26T01:36:48.737Z,5.43
2023-04-26T01:37:48.711Z,5.30
2023-04-26T01:38:48.699Z,5.32
2023-04-26T01:39:48.695Z,5.36
2023-04-26T01:40:48.668Z,5.33
2023-04-26T01:41:48.709Z,5.28
2023-04-26T01:42:48.666Z,5.26
2023-04-26T01:43:48.621Z,5.32
2023-04-26T01:44:48.635Z,5.32
2023-04-26T01:45:48.599Z,5.30
2023-04-26T01:46:48.625Z,5.43
2023-04-26T01:47:48.609Z,5.30
2023-04-26T01:48:48.545Z,5.26
2023-04-26T01:49:48.585Z,5.29
2023-04-26T01:50:48.652Z,5.30
2023-04-26T01:51:48.532Z,5.29
2023-04-26T01:52:49.534Z,5.35
2023-04-26T01:53:48.522Z,5.25
2023-04-26T01:54:48.472Z,5.15
2023-04-26T01:55:48.476Z,5.21
2023-04-26T01:56:48.467Z,5.18
2023-04-26T01:57:48.478Z,5.17
2023-04-26T01:58:48.474Z,5.38
2023-04-26T01:59:48.474Z,5.36
2023-04-26T02:00:48.407Z,5.35
2023-04-26T02:01:48.456Z,5.44
2023-04-26T02:02:48.450Z,5.33
2023-04-26T02:03:48.412Z,5.25
2023-04-26T02:04:48.400Z,5.25
2023-04-26T02:05:48.349Z,5.26
2023-04-26T02:06:48.364Z,5.18
2023-04-26T02:07:48.363Z,5.10
2023-04-26T02:08:48.330Z,4.99
2023-04-26T02:09:48.329Z,4.96
2023-04-26T02:10:48.277Z,4.93
2023-04-26T02:11:48.261Z,4.90
2023-04-26T02:12:48.248Z,4.93
2023-04-26T02:13:48.457Z,4.97
2023-04-26T02:14:48.247Z,4.96
2023-04-26T02:15:48.355Z,4.99
2023-04-26T02:16:48.258Z,5.08
2023-04-26T02:17:48.299Z,5.05
2023-04-26T02:18:48.197Z,5.05
2023-04-26T02:19:48.161Z,5.07
2023-04-26T02:20:48.134Z,5.07
2023-04-26T02:21:48.214Z,5.08
2023-04-26T02:22:48.166Z,5.10
2023-04-26T02:23:48.135Z,5.05
2023-04-26T02:24:48.146Z,5.08
2023-04-26T02:25:48.141Z,5.08
2023-04-26T02:26:48.072Z,5.00
2023-04-26T02:27:48.076Z,4.92
2023-04-26T02:28:48.024Z,4.93
2023-04-26T02:29:48.024Z,4.89
2023-04-26T02:30:48.007Z,4.92
2023-04-26T02:31:48.023Z,4.90
2023-04-26T02:32:48.031Z,4.86
2023-04-26T02:33:47.980Z,4.82
2023-04-26T02:34:47.948Z,4.80
2023-04-26T02:35:47.978Z,4.84
2023-04-26T02:36:47.931Z,4.80
2023-04-26T02:37:47.905Z,4.84
2023-04-26T02:38:47.940Z,4.67
2023-04-26T02:39:47.894Z,4.66
2023-04-26T02:40:47.889Z,4.62
2023-04-26T02:41:47.906Z,4.59
2023-04-26T02:42:47.867Z,4.53
2023-04-26T02:43:47.830Z,4.49
2023-04-26T02:44:47.896Z,4.42
2023-04-26T02:45:47.824Z,4.48
2023-04-26T02:46:47.860Z,4.44
2023-04-26T02:47:47.895Z,4.38
2023-04-26T02:48:47.860Z,4.37
2023-04-26T02:49:47.996Z,4.31
2023-04-26T02:50:48.190Z,4.30
2023-04-26T02:51:47.728Z,4.22
2023-04-26T02:52:47.718Z,4.12
2023-04-26T02:53:47.715Z,4.08
2023-04-26T02:54:48.529Z,4.13
2023-04-26T02:55:47.713Z,4.20
2023-04-26T02:56:47.718Z,4.14
2023-04-26T02:57:47.668Z,4.06
2023-04-26T02:58:47.627Z,4.10
2023-04-26T02:59:47.627Z,4.02
2023-04-26T03:00:48.743Z,4.05
2023-04-26T03:01:47.616Z,4.10
2023-04-26T03:02:47.732Z,4.06
2023-04-26T03:03:47.702Z,4.08
2023-04-26T03:04:47.586Z,4.12
2023-04-26T03:05:47.555Z,4.10
2023-04-26T03:06:47.533Z,3.99
2023-04-26T03:07:47.550Z,4.02
2023-04-26T03:08:47.542Z,4.08
2023-04-26T03:09:47.702Z,4.01
2023-04-26T03:10:47.484Z,4.02
2023-04-26T03:11:49.610Z,4.04
2023-04-26T03:12:47.447Z,4.01
2023-04-26T03:13:47.430Z,4.01
2023-04-26T03:14:47.419Z,3.87
2023-04-26T03:15:47.420Z,3.91
2023-04-26T03:16:47.451Z,3.94
2023-04-26T03:17:47.603Z,3.94
2023-04-26T03:18:47.370Z,3.94
2023-04-26T03:19:47.562Z,3.96
2023-04-26T03:20:47.371Z,4.02
2023-04-26T03:21:47.329Z,4.04
2023-04-26T03:22:47.330Z,3.92
2023-04-26T03:23:47.297Z,4.05
2023-04-26T03:24:47.313Z,3.99
2023-04-26T03:25:47.283Z,3.95
2023-04-26T03:26:47.280Z,4.06
2023-04-26T03:27:47.239Z,3.98
2023-04-26T03:28:47.254Z,3.98
2023-04-26T03:29:47.221Z,4.05
2023-04-26T03:30:47.211Z,3.96
2023-04-26T03:31:47.208Z,3.91
2023-04-26T03:32:47.212Z,3.92
2023-04-26T03:33:47.359Z,3.98
2023-04-26T03:34:47.143Z,3.92
2023-04-26T03:35:47.146Z,3.92
2023-04-26T03:36:47.144Z,3.88
2023-04-26T03:37:47.112Z,3.84
2023-04-26T03:38:47.300Z,3.86
2023-04-26T03:39:47.093Z,3.76
2023-04-26T03:40:47.089Z,3.80
2023-04-26T03:41:47.052Z,3.80
2023-04-26T03:42:47.697Z,3.70
2023-04-26T03:43:47.037Z,3.66
2023-04-26T03:44:47.025Z,3.65
2023-04-26T03:45:47.014Z,3.58
2023-04-26T03:46:46.995Z,3.53
2023-04-26T03:47:47.026Z,3.53
2023-04-26T03:48:46.963Z,3.53
2023-04-26T03:49:47.057Z,3.50
2023-04-26T03:50:46.944Z,3.48
2023-04-26T03:51:46.967Z,3.41
2023-04-26T03:52:46.914Z,3.41
2023-04-26T03:53:46.886Z,3.42
2023-04-26T03:54:46.875Z,3.31
2023-04-26T03:55:46.869Z,3.23
2023-04-26T03:56:46.850Z,3.37
2023-04-26T03:57:46.828Z,3.34
2023-04-26T03:58:46.859Z,3.31
2023-04-26T03:59:46.916Z,3.32
2023-04-26T04:00:46.826Z,3.26
2023-04-26T04:01:46.785Z,3.28
2023-04-26T04:02:46.940Z,3.28
2023-04-26T04:03:46.937Z,3.29
2023-04-26T04:04:46.868Z,3.34
2023-04-26T04:05:46.816Z,3.26
2023-04-26T04:06:46.689Z,3.32
2023-04-26T04:07:46.699Z,3.34
2023-04-26T04:08:46.908Z,3.28
2023-04-26T04:09:46.884Z,3.47
2023-04-26T04:10:46.667Z,3.42
2023-04-26T04:11:47.591Z,3.48
2023-04-26T04:12:46.620Z,3.47
2023-04-26T04:13:46.622Z,3.56
2023-04-26T04:14:46.811Z,3.56
2023-04-26T04:15:46.624Z,3.68
2023-04-26T04:16:46.585Z,3.62
2023-04-26T04:17:46.591Z,3.78
2023-04-26T04:18:46.558Z,3.76
2023-04-26T04:19:46.753Z,3.83
2023-04-26T04:20:46.531Z,3.81
2023-04-26T04:21:46.498Z,3.91
2023-04-26T04:22:46.478Z,3.95
2023-04-26T04:23:46.535Z,4.05
2023-04-26T04:24:46.478Z,4.08
2023-04-26T04:25:46.443Z,4.17
2023-04-26T04:26:46.426Z,4.26
2023-04-26T04:27:46.402Z,4.32
2023-04-26T04:28:46.406Z,4.40
2023-04-26T04:29:46.594Z,4.62
2023-04-26T04:30:46.601Z,4.70
2023-04-26T04:31:46.449Z,4.92
2023-04-26T04:32:46.604Z,5.04
2023-04-26T04:33:46.327Z,5.14
2023-04-26T04:34:48.326Z,5.23
2023-04-26T04:35:46.324Z,5.36
2023-04-26T04:36:46.285Z,5.47
2023-04-26T04:37:46.290Z,5.46
2023-04-26T04:38:46.266Z,5.56
2023-04-26T04:39:46.250Z,5.44
2023-04-26T04:40:46.230Z,5.46
2023-04-26T04:41:46.220Z,5.46
2023-04-26T04:42:46.226Z,5.53
2023-04-26T04:43:46.222Z,5.39
2023-04-26T04:44:46.194Z,5.43
2023-04-26T04:45:46.185Z,5.20
2023-04-26T04:46:46.216Z,5.11
2023-04-26T04:47:46.163Z,5.12
2023-04-26T04:48:46.155Z,5.25
2023-04-26T04:49:46.131Z,5.25
2023-04-26T04:50:46.113Z,5.28
2023-04-26T04:51:46.095Z,5.32
2023-04-26T04:52:46.093Z,5.36
2023-04-26T04:53:46.075Z,5.38
2023-04-26T04:54:46.054Z,5.54
2023-04-26T04:55:46.058Z,5.56
2023-04-26T04:56:46.254Z,5.53
2023-04-26T04:57:46.012Z,5.66
2023-04-26T04:58:46.002Z,5.56
2023-04-26T04:59:45.995Z,5.44
2023-04-26T05:00:45.978Z,5.33
2023-04-26T05:01:45.984Z,5.39
2023-04-26T05:02:46.194Z,5.57
2023-04-26T05:03:46.089Z,5.65
2023-04-26T05:04:46.132Z,5.54
2023-04-26T05:05:45.918Z,5.56
2023-04-26T05:06:45.905Z,5.59
2023-04-26T05:07:45.898Z,5.53
2023-04-26T05:08:45.891Z,5.62
2023-04-26T05:09:45.906Z,5.68
2023-04-26T05:10:45.860Z,5.56
2023-04-26T05:11:45.838Z,5.53
2023-04-26T05:12:45.830Z,5.54
2023-04-26T05:13:45.816Z,5.54
2023-04-26T05:14:45.832Z,5.89
2023-04-26T05:15:45.814Z,5.97
2023-04-26T05:16:45.809Z,5.99
2023-04-26T05:17:45.789Z,5.97
2023-04-26T05:18:45.973Z,5.97
2023-04-26T05:19:45.735Z,6.26
2023-04-26T05:20:45.732Z,6.38
2023-04-26T05:21:45.720Z,6.33
2023-04-26T05:22:45.718Z,6.57
2023-04-26T05:23:45.689Z,6.48
2023-04-26T05:24:45.674Z,6.56
2023-04-26T05:25:45.654Z,6.57
2023-04-26T05:26:45.677Z,6.56
2023-04-26T05:27:45.649Z,6.52
2023-04-26T05:28:45.625Z,6.63
2023-04-26T05:29:45.639Z,6.67
2023-04-26T05:30:45.603Z,6.54
2023-04-26T05:31:45.856Z,6.60
2023-04-26T05:32:45.684Z,6.63
2023-04-26T05:33:45.573Z,6.74
2023-04-26T05:34:45.559Z,6.95
2023-04-26T05:35:45.540Z,7.11
2023-04-26T05:36:45.532Z,7.17
2023-04-26T05:37:45.510Z,7.29
2023-04-26T05:38:45.530Z,7.38
2023-04-26T05:39:45.499Z,7.36
2023-04-26T05:40:45.492Z,7.31
2023-04-26T05:41:45.484Z,7.28
2023-04-26T05:42:45.456Z,7.40
2023-04-26T05:43:45.433Z,7.43
2023-04-26T05:44:45.441Z,7.54
2023-04-26T05:45:45.515Z,7.80
2023-04-26T05:46:45.424Z,7.88
2023-04-26T05:47:45.404Z,7.98
2023-04-26T05:48:45.405Z,8.06
2023-04-26T05:49:45.370Z,8.09
2023-04-26T05:50:45.369Z,8.31
2023-04-26T05:51:45.369Z,8.48
2023-04-26T05:52:45.328Z,8.45
2023-04-26T05:53:45.325Z,8.60
2023-04-26T05:54:45.294Z,8.70
2023-04-26T05:55:45.285Z,8.41
2023-04-26T05:56:45.277Z,8.46
2023-04-26T05:57:45.291Z,8.37
2023-04-26T05:58:45.245Z,8.46
2023-04-26T05:59:45.259Z,8.58
2023-04-26T06:00:45.238Z,8.74
2023-04-26T06:01:45.218Z,8.49
2023-04-26T06:02:45.450Z,8.48
2023-04-26T06:03:45.491Z,8.56
2023-04-26T06:04:45.351Z,8.74
2023-04-26T06:05:45.207Z,8.82
2023-04-26T06:06:45.267Z,8.91
2023-04-26T06:07:45.159Z,9.02
2023-04-26T06:08:45.166Z,9.21
2023-04-26T06:09:45.131Z,9.25
2023-04-26T06:10:45.114Z,8.87
2023-04-26T06:11:45.108Z,8.60
2023-04-26T06:12:45.150Z,8.61
2023-04-26T06:13:45.152Z,8.37
2023-04-26T06:14:45.084Z,8.44
2023-04-26T06:15:45.075Z,8.56
2023-04-26T06:16:45.069Z,8.28
2023-04-26T06:17:45.082Z,8.45
2023-04-26T06:18:45.038Z,8.67
2023-04-26T06:19:45.019Z,8.94
2023-04-26T06:20:45.010Z,9.18
2023-04-26T06:21:45.012Z,9.19
2023-04-26T06:22:45.017Z,9.31
2023-04-26T06:23:44.994Z,9.18
2023-04-26T06:24:44.966Z,9.26
2023-04-26T06:25:44.990Z,9.10
2023-04-26T06:26:45.071Z,9.08
2023-04-26T06:27:44.940Z,8.91
2023-04-26T06:28:44.941Z,8.92
2023-04-26T06:29:44.945Z,9.14
2023-04-26T06:30:44.940Z,9.32
2023-04-26T06:31:44.894Z,9.39
2023-04-26T06:32:44.932Z,9.40
2023-04-26T06:33:44.877Z,9.40
2023-04-26T06:34:44.894Z,9.47
2023-04-26T06:35:44.866Z,9.48
2023-04-26T06:36:44.833Z,9.32
2023-04-26T06:37:44.899Z,9.47
2023-04-26T06:38:44.899Z,9.69
2023-04-26T06:39:44.833Z,9.98
2023-04-26T06:40:44.855Z,10.09
2023-04-26T06:41:44.844Z,10.30
2023-04-26T06:42:44.805Z,10.44
2023-04-26T06:43:44.798Z,10.46
2023-04-26T06:44:44.778Z,10.67
2023-04-26T06:45:44.793Z,10.59
2023-04-26T06:46:44.798Z,10.37
2023-04-26T06:47:44.795Z,10.04
2023-04-26T06:48:44.801Z,9.84
2023-04-26T06:49:44.730Z,9.77
2023-04-26T06:50:44.761Z,9.61
2023-04-26T06:51:44.714Z,9.37
2023-04-26T06:52:44.689Z,9.46
2023-04-26T06:53:44.681Z,9.48
2023-04-26T06:54:56.100Z,9.51
2023-04-26T06:55:44.703Z,9.37
2023-04-26T06:56:44.666Z,9.50
2023-04-26T06:57:44.670Z,9.37
2023-04-26T06:58:44.852Z,9.06
2023-04-26T06:59:44.613Z,8.78
2023-04-26T07:00:44.628Z,9.00
2023-04-26T07:01:44.644Z,9.25
2023-04-26T07:02:44.788Z,9.08
2023-04-26T07:03:44.652Z,9.36
2023-04-26T07:04:44.930Z,9.40
2023-04-26T07:05:44.623Z,9.43
2023-04-26T07:06:44.541Z,9.40
2023-04-26T07:07:44.569Z,9.21
2023-04-26T07:08:44.544Z,9.37
2023-04-26T07:09:44.632Z,9.56
2023-04-26T07:10:44.645Z,9.87
2023-04-26T07:11:44.527Z,10.12
2023-04-26T07:12:44.867Z,10.20
2023-04-26T07:13:44.496Z,10.13
2023-04-26T07:14:44.484Z,10.19
2023-04-26T07:15:44.563Z,10.13
2023-04-26T07:16:44.689Z,10.28
2023-04-26T07:17:44.490Z,10.53
2023-04-26T07:18:44.464Z,10.60
2023-04-26T07:19:44.444Z,10.34
2023-04-26T07:20:44.444Z,10.61
2023-04-26T07:21:44.407Z,10.61
2023-04-26T07:22:44.380Z,10.38
2023-04-26T07:23:44.369Z,10.35
2023-04-26T07:24:44.373Z,10.01
2023-04-26T07:25:44.403Z,10.01
2023-04-26T07:26:44.388Z,9.95
2023-04-26T07:27:44.588Z,10.01
2023-04-26T07:28:44.332Z,9.79
2023-04-26T07:29:44.324Z,9.95
2023-04-26T07:30:44.286Z,10.15
2023-04-26T07:31:44.308Z,10.05
2023-04-26T07:32:44.415Z,10.02
2023-04-26T07:33:44.297Z,9.92
2023-04-26T07:34:44.280Z,9.99
2023-04-26T07:35:44.290Z,10.04
2023-04-26T07:36:44.504Z,10.09
2023-04-26T07:37:44.433Z,10.04
2023-04-26T07:38:44.222Z,10.23
2023-04-26T07:39:44.200Z,10.46
2023-04-26T07:40:44.195Z,10.51
2023-04-26T07:41:44.305Z,10.35
2023-04-26T07:42:44.205Z,10.57
2023-04-26T07:43:44.195Z,10.60
2023-04-26T07:44:44.267Z,10.68
2023-04-26T07:45:44.206Z,10.79
2023-04-26T07:46:44.174Z,10.76
2023-04-26T07:47:44.197Z,10.82
2023-04-26T07:48:44.152Z,10.72
2023-04-26T07:49:45.776Z,10.49
2023-04-26T07:50:44.134Z,10.35
2023-04-26T07:51:44.120Z,10.30
2023-04-26T07:52:44.114Z,10.60
2023-04-26T07:53:44.121Z,10.34
2023-04-26T07:54:44.068Z,10.13
2023-04-26T07:55:44.285Z,10.46
2023-04-26T07:56:44.093Z,10.71
2023-04-26T07:57:44.263Z,10.87
2023-04-26T07:58:44.259Z,11.35
2023-04-26T07:59:44.089Z,11.44
2023-04-26T08:00:44.139Z,11.50
2023-04-26T08:01:44.047Z,11.50
2023-04-26T08:02:45.491Z,11.69
2023-04-26T08:03:44.121Z,11.95
2023-04-26T08:04:44.148Z,12.29
2023-04-26T08:05:44.285Z,12.22
2023-04-26T08:06:44.009Z,12.55
2023-04-26T08:07:43.985Z,12.61
2023-04-26T08:08:43.989Z,12.93
2023-04-26T08:09:43.974Z,13.08
2023-04-26T08:10:43.946Z,12.55
2023-04-26T08:11:44.003Z,12.07
2023-04-26T08:12:43.985Z,12.09
2023-04-26T08:13:43.940Z,12.37
2023-04-26T08:14:43.964Z,12.36
2023-04-26T08:15:43.914Z,12.02
2023-04-26T08:16:43.925Z,11.84
2023-04-26T08:17:43.966Z,12.12
2023-04-26T08:18:46.668Z,12.27
2023-04-26T08:19:43.872Z,11.86
2023-04-26T08:20:43.875Z,11.77
2023-04-26T08:21:43.855Z,12.22
2023-04-26T08:22:43.929Z,12.28
2023-04-26T08:23:43.868Z,12.35
2023-04-26T08:24:44.040Z,12.49
2023-04-26T08:25:44.493Z,12.15
2023-04-26T08:26:43.829Z,12.06
2023-04-26T08:27:43.840Z,11.94
2023-04-26T08:28:43.808Z,11.80
2023-04-26T08:29:44.018Z,11.48
2023-04-26T08:30:44.056Z,11.10
2023-04-26T08:31:43.789Z,11.15
2023-04-26T08:32:43.818Z,10.76
2023-04-26T08:33:43.791Z,10.40
2023-04-26T08:34:43.747Z,10.61
2023-04-26T08:35:43.765Z,10.68
2023-04-26T08:36:43.757Z,10.79
2023-04-26T08:37:43.735Z,11.05
2023-04-26T08:38:43.761Z,11.44
2023-04-26T08:39:43.744Z,11.37
2023-04-26T08:40:43.739Z,11.60
2023-04-26T08:41:43.725Z,12.04
2023-04-26T08:42:43.740Z,12.49
2023-04-26T08:43:44.325Z,12.91
2023-04-26T08:44:43.720Z,13.28
2023-04-26T08:45:43.707Z,13.75
2023-04-26T08:46:43.810Z,13.93
2023-04-26T08:47:43.678Z,13.53
2023-04-26T08:48:43.650Z,13.18
2023-04-26T08:49:43.665Z,12.73
2023-04-26T08:50:43.661Z,12.27
2023-04-26T08:51:43.684Z,11.91
2023-04-26T08:52:43.849Z,11.63
2023-04-26T08:53:43.618Z,11.26
2023-04-26T08:54:43.626Z,11.15
2023-04-26T08:55:43.685Z,11.10
2023-04-26T08:56:43.640Z,11.25
2023-04-26T08:57:43.611Z,11.26
2023-04-26T08:58:43.585Z,11.02
2023-04-26T08:59:43.563Z,11.41
2023-04-26T09:00:43.760Z,11.90
2023-04-26T09:01:43.798Z,11.84
2023-04-26T09:02:43.693Z,11.52
2023-04-26T09:03:43.782Z,11.40
2023-04-26T09:04:43.685Z,11.41
2023-04-26T09:05:43.527Z,11.12
2023-04-26T09:06:43.512Z,10.93
2023-04-26T09:07:43.635Z,11.19
2023-04-26T09:08:43.525Z,11.43
2023-04-26T09:09:43.534Z,11.84
2023-04-26T09:10:43.550Z,11.95
2023-04-26T09:11:43.497Z,12.25
2023-04-26T09:12:43.477Z,12.32
2023-04-26T09:13:43.480Z,12.70
2023-04-26T09:14:43.486Z,13.05
2023-04-26T09:15:43.496Z,13.11
2023-04-26T09:16:43.466Z,13.11
2023-04-26T09:17:43.555Z,12.79
2023-04-26T09:18:43.473Z,12.47
2023-04-26T09:19:43.500Z,12.31
2023-04-26T09:20:43.406Z,12.54
2023-04-26T09:21:43.394Z,12.85
2023-04-26T09:22:43.379Z,12.78
2023-04-26T09:23:43.390Z,12.93
2023-04-26T09:24:43.574Z,13.20
2023-04-26T09:25:43.351Z,13.18
2023-04-26T09:26:43.342Z,12.60
2023-04-26T09:27:43.425Z,12.57
2023-04-26T09:28:43.332Z,12.28
2023-04-26T09:29:43.353Z,11.90
2023-04-26T09:30:43.317Z,11.99
2023-04-26T09:31:43.395Z,12.31
2023-04-26T09:32:43.329Z,12.29
2023-04-26T09:33:43.343Z,12.54
2023-04-26T09:34:43.286Z,12.86
2023-04-26T09:35:43.518Z,12.93
2023-04-26T09:36:43.277Z,13.08
2023-04-26T09:37:50.888Z,13.41
2023-04-26T09:38:43.217Z,13.65
2023-04-26T09:39:43.221Z,13.87
2023-04-26T09:40:43.293Z,14.23
2023-04-26T09:41:43.231Z,14.44
2023-04-26T09:42:43.241Z,14.41
2023-04-26T09:43:43.248Z,14.50
2023-04-26T09:44:43.195Z,14.65
2023-04-26T09:45:43.205Z,15.10
2023-04-26T09:46:43.292Z,15.15
2023-04-26T09:47:43.226Z,13.89
2023-04-26T09:48:43.187Z,13.78
2023-04-26T09:49:43.386Z,13.33
2023-04-26T09:50:43.165Z,12.67
2023-04-26T09:51:43.156Z,12.47
2023-04-26T09:52:43.142Z,12.24
2023-04-26T09:53:43.175Z,12.00
2023-04-26T09:54:43.101Z,11.88
2023-04-26T09:55:43.099Z,11.83
2023-04-26T09:56:43.304Z,11.88
2023-04-26T09:57:43.081Z,11.81
2023-04-26T09:58:43.058Z,11.77
2023-04-26T09:59:43.044Z,11.87
2023-04-26T10:00:43.060Z,11.73
2023-04-26T10:01:43.121Z,11.68
2023-04-26T10:02:43.139Z,11.48
2023-04-26T10:03:43.328Z,11.05
2023-04-26T10:04:43.087Z,11.00
2023-04-26T10:05:42.990Z,10.64
2023-04-26T10:06:43.028Z,10.68
2023-04-26T10:07:42.988Z,10.67
2023-04-26T10:08:42.975Z,10.79
2023-04-26T10:09:42.998Z,10.82
2023-04-26T10:10:42.964Z,10.94
2023-04-26T10:11:42.966Z,11.44
2023-04-26T10:12:42.926Z,11.77
2023-04-26T10:13:42.975Z,12.27
2023-04-26T10:14:43.190Z,12.62
2023-04-26T10:15:42.901Z,12.60
2023-04-26T10:16:42.907Z,12.60
2023-04-26T10:17:42.929Z,12.58
2023-04-26T10:18:42.916Z,12.37
2023-04-26T10:19:42.890Z,12.43
2023-04-26T10:20:42.871Z,12.29
2023-04-26T10:21:42.848Z,12.27
2023-04-26T10:22:42.981Z,12.00
2023-04-26T10:23:42.900Z,11.91
2023-04-26T10:24:42.861Z,11.69
2023-04-26T10:25:42.836Z,11.69
2023-04-26T10:26:42.807Z,11.55
2023-04-26T10:27:42.866Z,11.44
2023-04-26T10:28:42.825Z,11.40
2023-04-26T10:29:42.791Z,11.50
2023-04-26T10:30:42.808Z,11.52
2023-04-26T10:31:42.884Z,11.68
2023-04-26T10:32:42.878Z,11.69
2023-04-26T10:33:42.775Z,11.52
2023-04-26T10:34:42.966Z,11.25
2023-04-26T10:35:42.750Z,11.45
2023-04-26T10:36:42.743Z,11.62
2023-04-26T10:37:42.796Z,11.95
2023-04-26T10:38:42.729Z,12.00
2023-04-26T10:39:42.739Z,11.99
2023-04-26T10:40:42.717Z,12.21
2023-04-26T10:41:42.710Z,12.25
2023-04-26T10:42:42.803Z,12.43
2023-04-26T10:43:42.805Z,12.40
2023-04-26T10:44:42.691Z,12.31
2023-04-26T10:45:42.719Z,12.28
2023-04-26T10:46:42.793Z,12.24
2023-04-26T10:47:42.681Z,12.24
2023-04-26T10:48:42.647Z,12.46
2023-04-26T10:49:42.649Z,12.43
2023-04-26T10:50:42.643Z,12.50
2023-04-26T10:51:42.672Z,12.21
2023-04-26T10:52:42.635Z,12.42
2023-04-26T10:53:42.596Z,12.32
2023-04-26T10:54:42.646Z,12.24
2023-04-26T10:55:42.884Z,12.21
2023-04-26T10:56:42.627Z,12.22
2023-04-26T10:57:42.597Z,12.24
2023-04-26T10:58:42.587Z,12.25
2023-04-26T10:59:54.070Z,12.17
2023-04-26T11:00:42.734Z,12.09
2023-04-26T11:01:42.559Z,12.18
2023-04-26T11:02:42.882Z,12.09
2023-04-26T11:03:42.707Z,11.83
2023-04-26T11:04:42.558Z,11.63
2023-04-26T11:05:42.508Z,11.36
2023-04-26T11:06:42.495Z,11.55
2023-04-26T11:07:42.475Z,11.47
2023-04-26T11:08:42.471Z,11.50
2023-04-26T11:09:42.490Z,11.54
2023-04-26T11:10:42.505Z,11.52
2023-04-26T11:11:42.451Z,11.29
2023-04-26T11:12:42.670Z,11.29
2023-04-26T11:13:42.491Z,11.25
2023-04-26T11:14:42.494Z,11.32
2023-04-26T11:15:42.417Z,11.50
2023-04-26T11:16:42.529Z,11.43
2023-04-26T11:17:42.480Z,11.55
2023-04-26T11:18:42.430Z,11.43
2023-04-26T11:19:42.401Z,11.37
2023-04-26T11:20:42.348Z,11.45
2023-04-26T11:21:42.373Z,11.48
2023-04-26T11:22:42.423Z,11.48
2023-04-26T11:23:42.326Z,11.55
2023-04-26T11:24:42.339Z,11.91
2023-04-26T11:25:42.553Z,12.06
2023-04-26T11:26:42.461Z,12.25
2023-04-26T11:27:42.334Z,12.29
2023-04-26T11:28:42.279Z,12.00
2023-04-26T11:29:42.400Z,12.02
2023-04-26T11:30:42.292Z,12.10
2023-04-26T11:31:42.393Z,12.13
2023-04-26T11:32:42.383Z,12.24
2023-04-26T11:33:42.234Z,12.31
2023-04-26T11:34:42.222Z,12.35
2023-04-26T11:35:42.231Z,12.40
2023-04-26T11:36:42.250Z,12.29
2023-04-26T11:37:42.352Z,12.57
2023-04-26T11:38:42.223Z,12.24
2023-04-26T11:39:42.192Z,12.47
2023-04-26T11:40:42.222Z,12.29
2023-04-26T11:41:42.243Z,12.45
2023-04-26T11:42:42.201Z,12.45
2023-04-26T11:43:42.212Z,12.42
2023-04-26T11:44:42.194Z,12.22
2023-04-26T11:45:42.168Z,12.22
2023-04-26T11:46:42.548Z,12.28
2023-04-26T11:47:42.224Z,12.18
2023-04-26T11:48:42.232Z,12.21
2023-04-26T11:49:42.200Z,11.97
2023-04-26T11:50:42.128Z,12.03
2023-04-26T11:51:42.086Z,11.86
2023-04-26T11:52:42.098Z,11.83
2023-04-26T11:53:42.068Z,12.10
2023-04-26T11:54:42.078Z,12.27
2023-04-26T11:55:42.099Z,12.42
2023-04-26T11:56:42.028Z,12.62
2023-04-26T11:57:42.072Z,12.75
2023-04-26T11:58:42.207Z,12.98
2023-04-26T11:59:42.003Z,13.09
2023-04-26T12:00:42.021Z,13.11
2023-04-26T12:01:42.039Z,12.57
2023-04-26T12:02:42.257Z,12.20
2023-04-26T12:03:42.288Z,12.09
2023-04-26T12:04:42.397Z,11.78
2023-04-26T12:05:41.960Z,11.87
2023-04-26T12:06:41.997Z,11.91
2023-04-26T12:07:41.957Z,11.68
2023-04-26T12:08:41.957Z,11.69
2023-04-26T12:09:41.949Z,11.57
2023-04-26T12:10:41.928Z,11.75
2023-04-26T12:11:41.936Z,11.77
2023-04-26T12:12:41.924Z,11.88
2023-04-26T12:13:41.949Z,11.87
2023-04-26T12:14:42.043Z,12.06
2023-04-26T12:15:41.920Z,11.94
2023-04-26T12:16:41.949Z,11.88
2023-04-26T12:17:41.903Z,11.51
2023-04-26T12:18:41.834Z,11.37
2023-04-26T12:19:41.856Z,11.43
2023-04-26T12:20:41.838Z,11.55
2023-04-26T12:21:41.839Z,11.94
2023-04-26T12:22:41.859Z,12.02
2023-04-26T12:23:41.836Z,12.00
2023-04-26T12:24:41.912Z,12.12
2023-04-26T12:25:42.077Z,12.09
2023-04-26T12:26:41.814Z,11.77
2023-04-26T12:27:41.766Z,11.95
2023-04-26T12:28:41.777Z,11.97
2023-04-26T12:29:41.749Z,12.04
2023-04-26T12:30:41.793Z,12.07
2023-04-26T12:31:41.814Z,11.81
2023-04-26T12:32:41.757Z,11.91
2023-04-26T12:33:41.813Z,11.43
2023-04-26T12:34:41.735Z,11.45
2023-04-26T12:35:41.690Z,11.54
2023-04-26T12:36:41.712Z,11.44
2023-04-26T12:37:41.723Z,11.14
2023-04-26T12:38:41.780Z,10.81
2023-04-26T12:39:41.694Z,10.42
2023-04-26T12:40:41.748Z,10.48
2023-04-26T12:41:41.786Z,10.64
2023-04-26T12:42:41.641Z,10.48
2023-04-26T12:43:41.652Z,10.59
2023-04-26T12:44:41.619Z,10.81
2023-04-26T12:45:42.217Z,10.86
2023-04-26T12:47:41.700Z,10.93
2023-04-26T12:48:41.584Z,11.07
2023-04-26T12:49:41.552Z,11.25
2023-04-26T12:50:41.550Z,11.32
2023-04-26T12:51:41.603Z,11.35
2023-04-26T12:52:41.566Z,11.40
2023-04-26T12:53:41.522Z,11.33
2023-04-26T12:54:41.613Z,11.23
2023-04-26T12:55:41.527Z,11.25
2023-04-26T12:56:41.582Z,11.15
2023-04-26T12:57:41.526Z,10.96
2023-04-26T12:58:41.494Z,10.75
2023-04-26T12:59:41.473Z,11.02
2023-04-26T13:00:43.280Z,11.18
2023-04-26T13:01:41.615Z,11.32
2023-04-26T13:02:41.663Z,11.29
2023-04-26T13:03:41.872Z,11.15
2023-04-26T13:04:42.060Z,11.40
2023-04-26T13:05:41.508Z,11.44
2023-04-26T13:06:41.418Z,11.65
2023-04-26T13:07:41.453Z,11.80